Time;durP1;ratioP1;P1;durP2;ratioP2;P2;SDS_P1;SDS_P2;PMS_P1;PMS_P2;Temp;Humidity;BMP_temperature;BMP_pressure;BME280_temperature;BME280_humidity;BME280_pressure;Samples;Min_cycle;Max_cycle;Signal;HPM_P1;HPM_P2
2023/08/23 00:01:50;;;;;;;20.48;18.92;;;;;;;24.29;55.75;100403.16;5035505;28;98681;-85
2023/08/23 00:04:16;;;;;;;20.48;18.77;;;;;;;24.25;55.79;100391.88;5021697;28;96783;-85
2023/08/23 00:06:41;;;;;;;20.50;19.00;;;;;;;24.24;55.91;100389.34;5036270;28;96987;-86
2023/08/23 00:09:06;;;;;;;20.73;18.90;;;;;;;24.13;55.90;100384.94;5034940;28;98776;-85
2023/08/23 00:11:32;;;;;;;21.10;18.98;;;;;;;24.20;56.15;100393.25;5035748;28;98856;-85
2023/08/23 00:13:58;;;;;;;21.42;19.10;;;;;;;24.16;56.32;100393.53;5035362;28;96715;-85
2023/08/23 00:16:23;;;;;;;21.10;19.10;;;;;;;24.17;56.22;100397.94;5035615;27;96986;-85
2023/08/23 00:18:52;;;;;;;20.58;18.90;;;;;;;24.17;56.39;100399.75;5035639;28;98644;-85
2023/08/23 00:21:17;;;;;;;21.35;19.40;;;;;;;24.14;56.13;100408.94;5035300;28;97629;-85
2023/08/23 00:23:43;;;;;;;21.13;19.08;;;;;;;24.15;56.17;100413.31;5035886;28;96684;-85
2023/08/23 00:26:10;;;;;;;21.42;19.25;;;;;;;24.15;56.18;100410.63;5035329;28;96829;-84
2023/08/23 00:28:38;;;;;;;20.60;18.77;;;;;;;24.14;56.14;100413.44;5017471;28;99061;-85
2023/08/23 00:31:04;;;;;;;24.65;19.67;;;;;;;24.05;56.06;100399.03;5035747;28;97540;-85
2023/08/23 00:33:29;;;;;;;20.98;18.90;;;;;;;24.12;56.10;100407.38;5035529;28;97731;-85
2023/08/23 00:35:54;;;;;;;22.05;19.85;;;;;;;24.01;56.24;100389.56;5016687;28;96770;-84
2023/08/23 00:38:20;;;;;;;20.38;18.77;;;;;;;24.01;56.39;100389.56;5030831;27;100464;-85
2023/08/23 00:40:47;;;;;;;21.70;19.48;;;;;;;24.02;56.24;100388.56;5013421;28;100340;-85
2023/08/23 00:43:13;;;;;;;20.73;18.70;;;;;;;24.04;56.44;100401.84;5023296;27;98783;-86
2023/08/23 00:45:40;;;;;;;22.33;19.30;;;;;;;24.02;56.64;100409.16;5026182;28;97178;-86
2023/08/23 00:48:05;;;;;;;20.05;18.45;;;;;;;23.99;56.62;100404.94;5034341;27;99072;-85
2023/08/23 00:50:32;;;;;;;21.10;19.10;;;;;;;24.00;56.81;100408.44;5031219;28;100140;-85
2023/08/23 00:52:58;;;;;;;22.55;19.10;;;;;;;24.01;56.55;100415.53;5021285;28;96878;-85
2023/08/23 00:55:24;;;;;;;20.85;19.15;;;;;;;23.95;57.12;100416.91;5035860;28;96808;-85
2023/08/23 00:57:50;;;;;;;21.05;19.35;;;;;;;23.94;57.26;100426.81;5016703;28;98687;-85
2023/08/23 01:00:16;;;;;;;20.67;19.15;;;;;;;23.95;56.94;100436.53;5043562;27;97748;-85
2023/08/23 01:02:42;;;;;;;20.63;18.75;;;;;;;23.81;56.79;100407.41;5022051;28;96710;-85
2023/08/23 01:05:08;;;;;;;22.38;19.20;;;;;;;23.91;56.87;100421.72;5028358;28;97005;-85
2023/08/23 01:07:39;;;;;;;20.67;19.08;;;;;;;23.77;57.07;100406.00;5021312;27;100737;-84
2023/08/23 01:10:30;;;;;;;20.85;18.95;;;;;;;23.78;56.89;100414.88;5029726;27;99174;-85
2023/08/23 01:13:09;;;;;;;21.13;19.10;;;;;;;23.75;57.27;100409.78;5029895;28;96742;-85
2023/08/23 01:15:35;;;;;;;20.33;18.65;;;;;;;23.72;57.40;100416.28;5017065;28;96710;-85
2023/08/23 01:18:02;;;;;;;21.45;19.52;;;;;;;23.66;57.50;100412.25;5013905;27;100918;-84
2023/08/23 01:20:29;;;;;;;21.45;19.48;;;;;;;23.63;57.52;100417.03;5000265;28;100567;-85
2023/08/23 01:23:10;;;;;;;21.48;19.38;;;;;;;23.55;57.60;100415.03;5016977;28;96818;-85
2023/08/23 01:25:36;;;;;;;21.15;19.58;;;;;;;23.56;58.04;100426.59;5009753;27;96767;-85
2023/08/23 01:28:02;;;;;;;21.48;19.70;;;;;;;23.45;57.87;100401.59;5023426;28;100503;-85
2023/08/23 01:30:27;;;;;;;20.83;19.02;;;;;;;23.47;57.86;100412.16;5020744;27;99975;-84
2023/08/23 01:33:04;;;;;;;21.15;19.52;;;;;;;23.44;58.12;100410.59;5026115;28;96754;-85
2023/08/23 01:35:56;;;;;;;21.50;19.67;;;;;;;23.40;58.23;100411.00;5012335;28;96801;-85
2023/08/23 01:38:22;;;;;;;21.58;19.67;;;;;;;23.42;58.18;100419.78;5023706;27;101120;-85
2023/08/23 01:40:48;;;;;;;22.13;19.63;;;;;;;23.37;58.32;100408.59;5016051;28;98933;-85
2023/08/23 01:43:14;;;;;;;21.45;19.50;;;;;;;23.32;58.48;100402.78;5022862;28;96737;-85
2023/08/23 01:45:40;;;;;;;21.17;19.23;;;;;;;23.34;58.58;100412.38;5017903;27;96897;-85
2023/08/23 01:48:05;;;;;;;21.27;19.25;;;;;;;23.34;58.46;100411.53;5034525;27;99293;-85
2023/08/23 01:50:31;;;;;;;22.30;20.00;;;;;;;23.29;58.62;100409.25;5023650;27;99970;-84
2023/08/23 01:52:57;;;;;;;20.17;18.65;;;;;;;23.24;58.81;100396.28;5002337;28;96773;-84
2023/08/23 01:55:23;;;;;;;21.85;19.77;;;;;;;23.25;59.04;100400.63;5034291;28;96796;-85
2023/08/23 01:57:50;;;;;;;22.00;19.90;;;;;;;23.23;59.06;100399.91;5019465;28;98740;-85
2023/08/23 02:00:15;;;;;;;23.48;20.20;;;;;;;23.28;59.11;100404.88;5033947;28;97752;-85
2023/08/23 02:02:41;;;;;;;22.48;19.90;;;;;;;23.23;59.05;100404.41;5015873;28;96704;-84
2023/08/23 02:05:07;;;;;;;20.77;19.27;;;;;;;23.27;59.16;100420.09;5034164;28;96896;-85
2023/08/23 02:07:33;;;;;;;22.52;20.13;;;;;;;23.26;59.14;100428.25;5033353;28;97973;-85
2023/08/23 02:09:58;;;;;;;22.25;19.58;;;;;;;23.18;59.17;100412.81;5033857;28;98222;-85
2023/08/23 02:12:24;;;;;;;21.75;19.55;;;;;;;23.23;59.49;100420.47;5015913;28;97018;-84
2023/08/23 02:14:49;;;;;;;21.13;19.48;;;;;;;23.18;59.48;100420.03;5015739;28;97496;-85
2023/08/23 02:17:15;;;;;;;22.13;20.08;;;;;;;23.19;59.39;100424.41;5015053;28;98939;-85
2023/08/23 02:19:40;;;;;;;22.17;19.80;;;;;;;23.19;59.44;100424.41;5033416;28;98556;-85
2023/08/23 02:22:06;;;;;;;21.00;19.35;;;;;;;23.15;59.35;100418.44;5033637;28;96693;-84
2023/08/23 02:24:33;;;;;;;21.83;19.73;;;;;;;23.13;59.50;100425.78;5016360;27;96935;-85
2023/08/23 02:26:58;;;;;;;22.10;20.23;;;;;;;23.07;59.54;100414.72;5046455;27;99214;-85
2023/08/23 02:29:24;;;;;;;21.63;19.35;;;;;;;23.10;59.74;100418.03;5033735;28;97351;-84
2023/08/23 02:31:49;;;;;;;21.65;19.75;;;;;;;23.08;59.77;100414.63;5033356;28;96722;-85
2023/08/23 02:34:15;;;;;;;21.90;19.88;;;;;;;23.09;59.78;100421.66;5034155;28;96716;-85
2023/08/23 02:36:40;;;;;;;21.10;19.10;;;;;;;23.10;59.92;100417.16;5033101;28;98733;-85
2023/08/23 02:39:06;;;;;;;21.98;20.10;;;;;;;23.05;59.86;100406.84;5033464;28;97658;-84
2023/08/23 02:41:31;;;;;;;22.23;19.88;;;;;;;23.10;59.89;100422.53;5019201;27;96724;-86
2023/08/23 02:43:57;;;;;;;21.48;19.60;;;;;;;23.03;59.97;100419.50;5047145;27;96884;-84
2023/08/23 02:46:23;;;;;;;21.92;19.83;;;;;;;22.94;59.94;100404.19;5033248;28;98023;-85
2023/08/23 02:48:48;;;;;;;21.38;19.58;;;;;;;22.97;60.38;100414.66;5023468;27;98805;-84
2023/08/23 02:51:15;;;;;;;22.60;20.27;;;;;;;23.00;60.67;100422.44;5049988;27;97425;-85
2023/08/23 02:53:41;;;;;;;22.55;20.30;;;;;;;22.99;60.40;100421.59;5040450;27;96762;-85
2023/08/23 02:56:08;;;;;;;22.95;20.55;;;;;;;22.92;60.34;100412.38;5018593;28;98777;-85
2023/08/23 02:58:33;;;;;;;22.63;20.50;;;;;;;22.91;60.30;100416.00;5044257;27;97260;-84
2023/08/23 03:01:00;;;;;;;22.08;19.88;;;;;;;22.89;60.49;100420.63;5038730;27;96763;-84
2023/08/23 03:03:26;;;;;;;23.73;21.17;;;;;;;22.83;60.42;100429.16;5026427;28;96856;-84
2023/08/23 03:05:56;;;;;;;22.25;20.40;;;;;;;22.78;60.17;100426.06;5001083;27;100798;-84
2023/08/23 03:08:23;;;;;;;21.75;19.40;;;;;;;22.80;60.40;100430.28;5026623;28;98426;-85
2023/08/23 03:10:48;;;;;;;22.45;20.33;;;;;;;22.73;60.14;100417.56;5032910;28;96951;-85
2023/08/23 03:13:14;;;;;;;21.60;19.45;;;;;;;22.70;60.42;100428.50;5031714;28;97062;-85
2023/08/23 03:15:40;;;;;;;23.20;20.95;;;;;;;22.69;60.40;100425.00;5031264;28;99022;-85
2023/08/23 03:18:07;;;;;;;21.48;19.42;;;;;;;22.69;60.49;100427.66;5014628;28;100128;-84
2023/08/23 03:20:32;;;;;;;23.15;20.33;;;;;;;22.68;60.61;100427.78;5032828;28;96706;-85
2023/08/23 03:22:58;;;;;;;24.38;20.55;;;;;;;22.64;60.73;100429.03;5047528;27;96813;-85
2023/08/23 03:25:25;;;;;;;22.15;19.75;;;;;;;22.69;60.58;100437.50;5014453;28;100884;-85
2023/08/23 03:27:52;;;;;;;28.23;21.05;;;;;;;22.63;60.71;100428.19;5014407;28;99762;-85
2023/08/23 03:30:19;;;;;;;22.23;20.20;;;;;;;22.65;60.61;100431.56;5020553;27;96787;-85
2023/08/23 03:32:44;;;;;;;21.27;19.58;;;;;;;22.58;60.81;100439.25;5022453;28;96955;-85
2023/08/23 03:35:10;;;;;;;22.13;20.25;;;;;;;22.51;61.08;100431.84;5028824;28;97675;-85
2023/08/23 03:37:35;;;;;;;22.90;20.77;;;;;;;22.53;60.94;100436.09;5032625;28;98340;-85
2023/08/23 03:40:03;;;;;;;23.50;21.15;;;;;;;22.53;61.07;100443.28;5014253;28;96844;-85
2023/08/23 03:42:29;;;;;;;29.30;21.05;;;;;;;22.51;60.95;100424.66;5023199;27;96916;-85
2023/08/23 03:44:55;;;;;;;21.58;19.33;;;;;;;22.45;61.01;100424.31;5037966;27;98697;-85
2023/08/23 03:47:20;;;;;;;23.05;20.60;;;;;;;22.49;61.12;100439.16;5014550;28;100473;-85
2023/08/23 03:49:47;;;;;;;21.45;19.65;;;;;;;22.45;60.92;100432.34;5032871;28;98540;-84
2023/08/23 03:52:13;;;;;;;21.92;19.80;;;;;;;22.35;61.05;100421.56;5032269;27;96935;-85
2023/08/23 03:54:38;;;;;;;21.40;19.48;;;;;;;22.39;61.11;100431.03;5013519;28;100453;-85
2023/08/23 03:57:05;;;;;;;22.02;19.90;;;;;;;22.43;61.13;100436.97;5013754;28;100821;-85
2023/08/23 03:59:32;;;;;;;22.52;20.48;;;;;;;22.45;61.08;100448.41;5025299;28;96890;-85
2023/08/23 04:01:58;;;;;;;21.58;19.58;;;;;;;22.51;61.21;100453.25;5023479;28;96894;-85
2023/08/23 04:04:23;;;;;;;22.48;20.45;;;;;;;22.43;60.93;100434.28;4996999;28;100481;-85
2023/08/23 04:06:49;;;;;;;24.23;19.98;;;;;;;22.51;61.02;100440.72;5029921;27;98649;-85
2023/08/23 04:09:15;;;;;;;22.25;20.15;;;;;;;22.53;61.08;100457.50;5036954;27;96857;-85
2023/08/23 04:11:41;;;;;;;22.05;19.58;;;;;;;22.51;60.90;100454.09;5028540;27;96799;-85
2023/08/23 04:14:06;;;;;;;21.73;19.65;;;;;;;22.43;61.28;100456.56;5028520;28;99128;-84
2023/08/23 04:16:32;;;;;;;22.50;20.60;;;;;;;22.53;61.11;100462.84;5035382;28;98756;-85
2023/08/23 04:18:58;;;;;;;21.77;19.95;;;;;;;22.51;61.15;100453.25;5046593;27;96858;-85
2023/08/23 04:21:24;;;;;;;20.17;18.63;;;;;;;22.63;60.85;100476.34;5020281;28;96932;-85
2023/08/23 04:23:51;;;;;;;22.23;20.33;;;;;;;22.65;60.67;100463.66;5017218;28;100034;-85
2023/08/23 04:26:17;;;;;;;23.80;21.30;;;;;;;22.71;60.74;100467.66;5030985;27;98687;-84
2023/08/23 04:28:42;;;;;;;23.00;20.60;;;;;;;22.72;60.88;100464.00;5035637;28;96798;-84
2023/08/23 04:31:08;;;;;;;22.55;20.23;;;;;;;22.69;60.90;100457.09;5017464;28;96883;-85
2023/08/23 04:33:42;;;;;;;22.58;20.70;;;;;;;22.77;60.75;100451.94;5017000;28;100666;-85
2023/08/23 04:36:07;;;;;;;20.88;18.88;;;;;;;22.82;60.53;100447.06;5035358;28;98425;-84
2023/08/23 04:38:33;;;;;;;23.13;20.88;;;;;;;22.96;60.08;100453.13;5017182;28;96721;-84
2023/08/23 04:41:03;;;;;;;23.67;21.65;;;;;;;23.18;59.51;100458.34;5017098;28;96829;-85
2023/08/23 04:43:31;;;;;;;22.00;20.30;;;;;;;23.31;59.09;100460.84;5003314;27;100237;-85
2023/08/23 04:45:59;;;;;;;22.65;20.77;;;;;;;23.46;58.60;100462.22;5045926;27;97100;-85
2023/08/23 04:48:26;;;;;;;23.30;21.02;;;;;;;23.75;58.10;100468.75;5013647;28;96713;-85
2023/08/23 04:50:54;;;;;;;26.65;20.98;;;;;;;23.91;57.29;100467.28;5007949;27;96916;-85
2023/08/23 04:53:19;;;;;;;24.10;22.00;;;;;;;24.18;57.00;100468.50;5044843;27;99032;-84
2023/08/23 04:55:45;;;;;;;23.70;21.60;;;;;;;24.32;56.60;100472.66;5002362;28;98677;-84
2023/08/23 04:58:11;;;;;;;22.70;20.75;;;;;;;24.54;56.02;100468.91;5014027;28;96839;-84
2023/08/23 05:00:36;;;;;;;23.08;20.70;;;;;;;24.61;55.87;100465.53;5016240;28;98571;-85
2023/08/23 05:03:03;;;;;;;23.33;21.20;;;;;;;24.79;55.51;100487.16;5002216;28;99582;-85
2023/08/23 05:05:29;;;;;;;22.80;21.00;;;;;;;24.87;55.14;100474.84;5016664;28;99936;-85
2023/08/23 05:07:55;;;;;;;22.98;20.88;;;;;;;24.86;55.17;100465.97;4998339;28;98636;-85
2023/08/23 05:10:20;;;;;;;24.50;21.88;;;;;;;24.99;54.99;100479.97;5016879;28;96892;-84
2023/08/23 05:12:46;;;;;;;30.02;22.52;;;;;;;25.08;54.61;100479.13;5034503;28;98975;-86
2023/08/23 05:15:12;;;;;;;24.85;22.27;;;;;;;25.19;54.32;100472.78;5034960;28;97634;-85
2023/08/23 05:17:37;;;;;;;23.48;21.67;;;;;;;25.37;53.86;100477.44;5030526;27;96837;-85
2023/08/23 05:20:04;;;;;;;24.30;21.77;;;;;;;25.59;53.34;100495.88;5011000;28;96954;-84
2023/08/23 05:22:30;;;;;;;24.95;22.67;;;;;;;25.88;52.60;100489.63;5037755;27;99095;-85
2023/08/23 05:24:56;;;;;;;23.33;21.25;;;;;;;26.33;50.94;100473.56;5035978;27;98393;-85
2023/08/23 05:27:21;;;;;;;23.20;21.40;;;;;;;26.96;50.08;100488.03;5034401;28;96746;-85
2023/08/23 05:29:47;;;;;;;24.95;22.25;;;;;;;27.78;47.71;100500.31;5035132;28;96780;-85
2023/08/23 05:32:12;;;;;;;23.63;21.13;;;;;;;28.58;46.16;100494.66;5033863;28;98922;-86
2023/08/23 05:34:40;;;;;;;23.55;21.10;;;;;;;29.65;43.73;100485.63;5030344;27;100527;-85
2023/08/23 05:37:06;;;;;;;24.08;21.75;;;;;;;30.75;41.88;100490.22;5048994;27;96745;-85
2023/08/23 05:39:32;;;;;;;23.48;21.13;;;;;;;31.66;39.96;100494.78;5016264;28;97010;-85
2023/08/23 05:41:58;;;;;;;25.00;22.42;;;;;;;32.47;38.32;100497.63;5034416;28;97677;-86
2023/08/23 05:44:23;;;;;;;24.90;22.52;;;;;;;33.25;37.64;100500.50;5016107;28;100365;-86
2023/08/23 05:46:49;;;;;;;23.80;21.88;;;;;;;33.71;36.40;100506.31;5032194;28;96845;-86
2023/08/23 05:49:15;;;;;;;24.52;22.52;;;;;;;33.73;36.43;100501.53;5004870;28;96786;-85
2023/08/23 05:51:40;;;;;;;22.80;20.90;;;;;;;34.46;35.13;100492.91;5048182;27;97839;-86
2023/08/23 05:54:06;;;;;;;22.55;20.52;;;;;;;32.50;37.70;100494.50;5037748;27;98407;-86
2023/08/23 05:56:31;;;;;;;23.00;20.83;;;;;;;30.83;40.23;100490.22;5033555;28;97163;-86
2023/08/23 05:58:57;;;;;;;23.92;21.27;;;;;;;30.10;41.53;100497.66;5016178;28;96863;-86
2023/08/23 06:01:23;;;;;;;22.30;20.20;;;;;;;30.12;41.55;100502.91;5001877;28;98843;-86
2023/08/23 06:03:49;;;;;;;23.13;20.90;;;;;;;29.93;41.88;100512.25;5046137;27;97410;-86
2023/08/23 06:06:15;;;;;;;22.55;20.75;;;;;;;29.42;42.61;100508.94;5031950;27;96690;-85
2023/08/23 06:08:40;;;;;;;23.48;21.08;;;;;;;29.29;42.78;100504.91;5023964;28;96826;-85
2023/08/23 06:11:06;;;;;;;23.25;20.88;;;;;;;32.72;37.41;100489.09;5033416;28;98089;-86
2023/08/23 06:13:32;;;;;;;23.65;20.70;;;;;;;34.17;34.52;100489.44;5034349;28;98727;-85
2023/08/23 06:15:57;;;;;;;23.77;21.52;;;;;;;35.84;32.40;100498.75;5048245;27;96897;-86
2023/08/23 06:18:23;;;;;;;23.35;21.27;;;;;;;37.45;29.80;100485.91;5033769;28;96949;-86
2023/08/23 06:20:49;;;;;;;22.27;20.45;;;;;;;38.47;28.39;100500.00;5032974;28;98588;-86
2023/08/23 06:23:15;;;;;;;21.13;19.42;;;;;;;39.20;28.21;100503.56;5033266;28;98433;-86
2023/08/23 06:25:41;;;;;;;21.30;19.55;;;;;;;39.69;27.19;100491.31;5033837;28;96671;-86
2023/08/23 06:28:07;;;;;;;21.92;20.15;;;;;;;39.86;26.50;100491.44;5033678;28;96823;-86
2023/08/23 06:30:35;;;;;;;22.45;20.55;;;;;;;39.94;26.63;100498.47;5033593;28;98656;-86
2023/08/23 06:33:01;;;;;;;21.60;19.67;;;;;;;39.34;26.89;100496.81;5047402;27;99025;-86
2023/08/23 06:35:27;;;;;;;20.92;19.27;;;;;;;38.65;28.12;100499.09;5032451;28;96829;-86
2023/08/23 06:37:52;;;;;;;21.23;19.45;;;;;;;38.52;28.06;100489.19;5033917;28;96715;-86
2023/08/23 06:40:18;;;;;;;22.65;20.80;;;;;;;39.28;26.47;100487.59;5032940;28;99301;-86
2023/08/23 06:42:43;;;;;;;20.10;18.55;;;;;;;40.55;25.55;100499.72;5022591;28;97441;-86
2023/08/23 06:45:09;;;;;;;21.50;19.90;;;;;;;41.71;24.30;100502.00;5029463;28;96817;-86
2023/08/23 06:47:38;;;;;;;20.95;19.15;;;;;;;42.65;23.58;100503.78;5033187;28;96827;-85
2023/08/23 06:50:04;;;;;;;20.17;18.70;;;;;;;43.09;22.61;100498.13;5019549;27;99515;-86
2023/08/23 06:52:29;;;;;;;21.63;19.88;;;;;;;44.03;21.82;100495.75;5021672;27;98571;-86
2023/08/23 06:54:55;;;;;;;21.27;19.48;;;;;;;44.31;21.35;100502.75;5041869;27;96698;-86
2023/08/23 06:57:28;;;;;;;21.75;19.20;;;;;;;45.03;20.94;100497.34;5037870;27;96861;-86
2023/08/23 06:59:55;;;;;;;20.05;18.45;;;;;;;45.59;19.93;100505.69;5032782;28;98847;-86
2023/08/23 07:02:21;;;;;;;20.98;19.48;;;;;;;46.36;18.96;100492.34;5032898;28;98688;-86
2023/08/23 07:04:46;;;;;;;22.63;20.83;;;;;;;47.05;18.84;100496.06;5032921;28;96798;-86
2023/08/23 07:07:12;;;;;;;22.63;20.75;;;;;;;47.63;18.28;100487.72;5045310;27;96878;-86
2023/08/23 07:09:37;;;;;;;21.88;20.17;;;;;;;48.16;17.52;100492.38;5033793;27;98916;-86
2023/08/23 07:12:03;;;;;;;21.50;19.80;;;;;;;48.58;17.08;100490.69;5022648;28;98620;-86
2023/08/23 07:14:28;;;;;;;23.20;21.02;;;;;;;48.93;16.55;100486.53;5028852;28;96800;-86
2023/08/23 07:16:54;;;;;;;20.30;18.90;;;;;;;49.36;16.39;100485.50;5032698;28;96881;-87
2023/08/23 07:19:19;;;;;;;20.48;18.95;;;;;;;49.16;15.70;100493.06;5032687;28;98721;-87
2023/08/23 07:21:45;;;;;;;21.60;19.80;;;;;;;49.82;15.79;100488.22;5032434;28;98630;-87
2023/08/23 07:24:10;;;;;;;20.35;18.75;;;;;;;50.16;15.80;100486.13;5032813;28;96714;-87
2023/08/23 07:26:36;;;;;;;20.65;18.90;;;;;;;50.64;14.88;100486.41;5032898;28;96827;-87
2023/08/23 07:29:01;;;;;;;19.77;18.52;;;;;;;50.56;14.42;100484.34;5042306;27;98653;-86
2023/08/23 07:31:27;;;;;;;20.42;18.83;;;;;;;50.90;13.74;100485.78;5036702;27;98581;-86
2023/08/23 07:33:52;;;;;;;20.52;18.67;;;;;;;49.92;14.10;100489.94;5032137;28;98462;-87
2023/08/23 07:36:18;;;;;;;20.60;19.02;;;;;;;50.70;14.10;100495.50;5032746;28;96883;-87
2023/08/23 07:38:43;;;;;;;19.85;18.25;;;;;;;51.28;14.06;100497.38;5032289;28;99215;-87
2023/08/23 07:41:09;;;;;;;19.75;18.30;;;;;;;51.65;14.27;100491.63;5032398;28;98698;-84
2023/08/23 07:43:35;;;;;;;20.27;18.88;;;;;;;52.05;13.26;100484.06;5014285;28;96851;-84
2023/08/23 07:46:03;;;;;;;18.80;17.40;;;;;;;52.55;12.62;100488.38;5034148;28;96825;-84
2023/08/23 07:48:28;;;;;;;19.93;18.30;;;;;;;52.68;12.81;100488.19;5037548;27;99100;-83
2023/08/23 07:51:01;;;;;;;19.02;17.55;;;;;;;52.71;12.20;100501.53;5052423;27;98405;-84
2023/08/23 07:53:27;;;;;;;19.77;18.38;;;;;;;53.08;12.05;100493.59;5034315;27;96743;-84
2023/08/23 07:55:53;;;;;;;19.73;18.33;;;;;;;53.66;12.39;100499.69;5032566;28;96930;-84
2023/08/23 07:58:18;;;;;;;21.65;19.67;;;;;;;54.08;11.94;100490.53;5035139;28;99016;-84
2023/08/23 08:00:44;;;;;;;20.33;18.67;;;;;;;54.29;12.14;100494.16;5034715;28;98472;-84
2023/08/23 08:03:09;;;;;;;20.27;18.83;;;;;;;54.28;12.04;100492.50;5022347;28;96723;-83
2023/08/23 08:05:35;;;;;;;19.92;18.48;;;;;;;54.00;11.52;100498.69;5048903;27;96821;-85
2023/08/23 08:08:02;;;;;;;20.13;18.60;;;;;;;54.91;11.05;100492.47;5031608;27;98946;-84
2023/08/23 08:10:28;;;;;;;20.15;18.58;;;;;;;55.44;10.70;100498.34;5019296;27;98569;-83
2023/08/23 08:12:54;;;;;;;20.23;18.83;;;;;;;55.96;11.04;100495.63;5041544;27;96588;-84
2023/08/23 08:15:19;;;;;;;20.00;18.40;;;;;;;56.29;9.59;100488.19;5047515;27;97005;-84
2023/08/23 08:17:46;;;;;;;20.17;18.67;;;;;;;56.84;9.50;100495.84;5035262;28;98656;-83
2023/08/23 08:20:12;;;;;;;18.98;17.75;;;;;;;56.99;8.80;100480.13;5035304;28;97922;-84
2023/08/23 08:22:38;;;;;;;20.02;18.63;;;;;;;57.75;9.68;100496.97;5035139;28;96706;-84
2023/08/23 08:25:04;;;;;;;20.75;19.25;;;;;;;58.13;9.22;100486.94;5049713;27;96814;-84
2023/08/23 08:27:30;;;;;;;21.02;19.35;;;;;;;58.30;8.73;100497.00;5034941;28;99147;-84
2023/08/23 08:29:56;;;;;;;20.77;19.17;;;;;;;59.02;8.62;100497.25;5038220;27;98242;-85
2023/08/23 08:32:21;;;;;;;19.15;17.65;;;;;;;58.92;8.06;100489.38;5046388;27;96664;-85
2023/08/23 08:34:47;;;;;;;21.80;19.77;;;;;;;58.92;8.10;100495.84;5049753;27;96798;-85
2023/08/23 08:37:13;;;;;;;19.50;17.75;;;;;;;58.97;7.68;100489.06;5042254;27;98547;-85
2023/08/23 08:39:39;;;;;;;20.92;19.00;;;;;;;58.46;7.45;100475.16;5029324;27;98710;-85
2023/08/23 08:42:05;;;;;;;19.38;18.10;;;;;;;59.33;7.86;100489.72;5034303;28;96920;-84
2023/08/23 08:44:30;;;;;;;20.60;18.98;;;;;;;60.43;7.18;100486.88;5024217;28;96790;-85
2023/08/23 08:46:56;;;;;;;20.30;18.98;;;;;;;60.57;6.90;100477.69;5015781;28;98202;-85
2023/08/23 08:49:21;;;;;;;20.80;19.45;;;;;;;60.87;7.06;100484.13;5034199;28;97549;-84
2023/08/23 08:51:47;;;;;;;21.20;19.65;;;;;;;60.51;7.67;100474.41;5032055;27;97017;-84
2023/08/23 08:54:19;;;;;;;20.13;18.73;;;;;;;60.46;7.74;100475.59;5037856;27;96783;-85
2023/08/23 08:56:47;;;;;;;20.52;19.23;;;;;;;61.52;7.78;100481.81;5033738;28;98760;-85
2023/08/23 08:59:15;;;;;;;;;;;;;;;62.06;7.52;100473.63;5036860;27;98654;-85
2023/08/23 09:01:42;;;;;;;21.55;19.88;;;;;;;62.71;7.07;100475.50;5028681;28;96685;-85
2023/08/23 09:04:07;;;;;;;20.95;19.38;;;;;;;62.95;7.57;100476.72;5035483;28;96802;-85
2023/08/23 09:06:36;;;;;;;21.05;19.70;;;;;;;62.76;7.28;100468.63;5034763;28;98553;-85
2023/08/23 09:09:03;;;;;;;21.33;19.73;;;;;;;60.68;6.70;100476.59;5012777;28;98540;-84
2023/08/23 09:11:32;;;;;;;20.52;19.15;;;;;;;61.28;7.24;100467.06;5033710;28;97013;-85
2023/08/23 09:13:57;;;;;;;21.20;19.80;;;;;;;60.78;7.25;100466.63;5023169;28;96775;-85
2023/08/23 09:16:26;;;;;;;20.95;19.35;;;;;;;60.61;7.46;100468.03;5046289;27;98740;-84
2023/08/23 09:18:52;;;;;;;21.02;19.38;;;;;;;58.48;7.47;100464.31;5034472;28;98457;-85
2023/08/23 09:21:24;;;;;;;20.50;19.20;;;;;;;57.83;8.00;100462.09;5022585;27;96880;-85
2023/08/23 09:23:50;;;;;;;21.50;19.77;;;;;;;56.45;8.14;100463.72;5027960;28;96863;-85
2023/08/23 09:26:16;;;;;;;20.77;19.40;;;;;;;53.39;9.55;100464.50;5048516;27;98921;-86
2023/08/23 09:28:42;;;;;;;19.83;18.33;;;;;;;50.11;11.77;100478.69;5016696;28;100020;-86
2023/08/23 09:31:10;;;;;;;14.18;13.15;;;;;;;47.71;13.65;100483.47;5034990;28;96778;-86
2023/08/23 09:33:37;;;;;;;;;;;;;;;45.87;15.79;100479.22;5020758;28;96905;-85
2023/08/23 09:36:03;;;;;;;19.95;18.42;;;;;;;44.62;17.05;100477.94;5034080;28;98682;-85
2023/08/23 09:38:28;;;;;;;19.25;17.83;;;;;;;43.61;16.55;100485.56;5034017;28;98656;-85
2023/08/23 09:40:54;;;;;;;18.95;17.58;;;;;;;42.49;18.30;100493.66;5034302;28;96721;-84
2023/08/23 09:43:21;;;;;;;20.83;19.23;;;;;;;41.69;17.81;100492.31;5017482;27;96968;-85
2023/08/23 09:45:48;;;;;;;20.20;18.83;;;;;;;41.42;18.46;100490.25;5054417;27;98854;-86
2023/08/23 09:48:15;;;;;;;20.30;18.83;;;;;;;41.03;18.65;100487.44;5026998;27;97563;-85
2023/08/23 09:50:41;;;;;;;20.30;18.75;;;;;;;40.76;19.69;100489.13;5018237;27;97207;-84
2023/08/23 09:53:15;;;;;;;19.65;18.13;;;;;;;40.62;20.08;100491.38;5028932;28;96902;-86
2023/08/23 09:55:42;;;;;;;20.13;18.67;;;;;;;40.01;20.12;100482.69;5015075;28;98232;-85
2023/08/23 09:58:08;;;;;;;19.30;18.00;;;;;;;39.75;19.83;100482.13;5011039;27;98443;-88
2023/08/23 10:00:34;;;;;;;20.38;18.45;;;;;;;39.65;19.96;100487.41;5040652;27;96731;-86
2023/08/23 10:03:00;;;;;;;20.33;19.02;;;;;;;39.35;19.72;100493.00;5043411;27;96739;-86
2023/08/23 10:05:25;;;;;;;19.52;18.13;;;;;;;39.00;20.59;100487.44;5025573;28;99033;-86
2023/08/23 10:07:55;;;;;;;19.85;18.65;;;;;;;38.74;20.29;100486.72;5019913;28;98309;-85
2023/08/23 10:10:20;;;;;;;;;;;;;;;38.47;21.31;100486.28;5035088;28;96712;-85
2023/08/23 10:12:48;;;;;;;20.52;18.73;;;;;;;38.22;21.06;100487.19;5034627;28;96668;-86
2023/08/23 10:15:16;;;;;;;20.10;18.80;;;;;;;38.33;21.80;100490.25;5016156;28;99139;-86
2023/08/23 10:17:43;;;;;;;19.67;18.38;;;;;;;38.23;21.80;100488.06;5013629;28;97294;-86
2023/08/23 10:20:10;;;;;;;19.80;18.20;;;;;;;38.14;22.24;100494.88;5027881;28;96805;-88
2023/08/23 10:22:36;;;;;;;21.15;19.60;;;;;;;37.86;21.84;100495.41;5027333;28;97078;-88
2023/08/23 10:25:03;;;;;;;20.50;18.77;;;;;;;37.51;22.76;100494.09;5038146;27;98887;-88
2023/08/23 10:27:33;;;;;;;19.23;17.60;;;;;;;37.42;23.14;100465.28;5025020;28;98442;-87
2023/08/23 10:30:06;;;;;;;19.65;17.98;;;;;;;37.45;23.14;100478.53;5034111;28;96737;-87
2023/08/23 10:32:37;;;;;;;19.38;18.08;;;;;;;36.59;22.31;100482.72;5044727;27;96865;-87
2023/08/23 10:35:22;;;;;;;20.00;18.60;;;;;;;36.03;22.59;100478.72;5054265;27;99071;-88
2023/08/23 10:37:47;;;;;;;19.13;17.77;;;;;;;36.17;22.95;100476.81;5054337;27;98689;-85
2023/08/23 10:40:18;;;;;;;19.42;18.05;;;;;;;36.12;23.25;100475.78;5022146;27;98573;-86
2023/08/23 10:42:43;;;;;;;20.33;19.02;;;;;;;35.88;22.97;100475.41;5034445;28;96754;-87
2023/08/23 10:45:09;;;;;;;19.25;17.95;;;;;;;34.91;23.11;100464.13;5048447;27;98678;-87
2023/08/23 10:47:36;;;;;;;19.80;18.13;;;;;;;35.24;23.30;100468.78;5015915;28;98404;-86
2023/08/23 10:50:03;;;;;;;19.50;18.00;;;;;;;35.38;24.33;100469.63;5018940;28;96738;-86
2023/08/23 10:52:30;;;;;;;20.83;19.30;;;;;;;35.23;23.66;100467.09;5028855;28;97494;-88
2023/08/23 10:54:56;;;;;;;20.20;18.77;;;;;;;35.21;24.36;100462.91;5013730;28;98970;-89
2023/08/23 10:57:22;;;;;;;20.38;18.98;;;;;;;35.13;24.60;100458.50;5028653;28;98899;-88
2023/08/23 10:59:47;;;;;;;19.83;18.52;;;;;;;35.08;24.39;100456.41;5009137;28;96900;-88
2023/08/23 11:02:13;;;;;;;20.45;18.73;;;;;;;34.82;24.25;100462.66;5026854;28;96864;-88
2023/08/23 11:04:38;;;;;;;19.95;18.45;;;;;;;34.70;24.75;100465.16;5028563;28;99086;-88
2023/08/23 11:07:05;;;;;;;19.40;18.00;;;;;;;33.75;23.70;100471.41;5015680;28;98758;-88